Terminal Aerodrome Forecast
Issued by NWS Birmingham, AL

Home | Current Version | Previous Version | Text Only | Print | Product List | Glossary On
Versions: 1 2 3 4 5 6 7 8 9 10 11 12 13 14 15 16 17 18 19 20 21 22 23 24
000
FTUS44 KBMX 272327
TAFBHM
TAF
KBHM 272327Z 2800/2824 18005KT 2SM TSRA BKN025CB OVC040
     FM280200 VRB03KT 4SM SHRA BKN030 BKN100
     FM280400 VRB03KT P6SM BKN040 OVC060
     FM281100 12005KT 6SM -DZ OVC015
     FM281900 12007KT P6SM VCTS OVC050CB=

USA.gov is the U.S. government's official web portal to all federal, state and local government web resources and services.